createdAt,value
2023-03-15T00:00:15.360Z,9.61
2023-03-15T00:01:19.809Z,9.62
2023-03-15T00:02:22.167Z,9.61
2023-03-15T00:03:24.448Z,9.62
2023-03-15T00:04:28.604Z,9.61
2023-03-15T00:05:31.721Z,9.60
2023-03-15T00:06:38.185Z,9.60
2023-03-15T00:07:41.393Z,9.60
2023-03-15T00:08:43.667Z,9.58
2023-03-15T00:09:46.643Z,9.57
2023-03-15T00:10:50.716Z,9.57
2023-03-15T00:11:53.038Z,9.56
2023-03-15T00:12:56.574Z,9.54
2023-03-15T00:13:59.521Z,9.53
2023-03-15T00:15:04.426Z,9.52
2023-03-15T00:16:07.217Z,9.51
2023-03-15T00:17:09.460Z,9.50
2023-03-15T00:18:17.934Z,9.50
2023-03-15T00:19:24.736Z,9.50
2023-03-15T00:20:29.771Z,9.49
2023-03-15T00:21:31.924Z,9.49
2023-03-15T00:22:37.589Z,9.47
2023-03-15T00:23:39.725Z,9.47
2023-03-15T00:24:42.962Z,9.48
2023-03-15T00:25:50.948Z,9.47
2023-03-15T00:26:53.272Z,9.45
2023-03-15T00:27:55.418Z,9.44
2023-03-15T00:28:57.631Z,9.44
2023-03-15T00:30:01.095Z,9.42
2023-03-15T00:32:23.611Z,9.50
2023-03-15T00:33:26.317Z,9.36
2023-03-15T00:34:32.490Z,9.36
2023-03-15T00:35:40.494Z,9.35
2023-03-15T00:36:42.688Z,9.36
2023-03-15T00:37:46.054Z,9.36
2023-03-15T00:38:51.644Z,9.39
2023-03-15T00:39:53.952Z,9.40
2023-03-15T00:40:57.866Z,9.40
2023-03-15T00:42:00.026Z,9.40
2023-03-15T00:43:02.319Z,9.38
2023-03-15T00:44:06.074Z,9.38
2023-03-15T00:45:08.598Z,9.39
2023-03-15T00:46:17.584Z,9.40
2023-03-15T00:47:19.806Z,9.39
2023-03-15T00:48:23.755Z,9.40
2023-03-15T00:49:25.860Z,9.38
2023-03-15T00:50:32.873Z,9.39
2023-03-15T00:51:36.434Z,9.38
2023-03-15T00:52:40.232Z,9.38
2023-03-15T00:53:47.540Z,9.36
2023-03-15T00:54:55.230Z,9.37
2023-03-15T00:55:58.053Z,9.37
2023-03-15T00:57:02.753Z,9.36
2023-03-15T00:58:05.302Z,9.37
2023-03-15T00:59:07.612Z,9.37
2023-03-15T01:00:14.644Z,9.35
2023-03-15T01:01:23.386Z,9.34
2023-03-15T01:02:25.592Z,9.33
2023-03-15T01:03:28.690Z,9.33
2023-03-15T01:04:31.896Z,9.33
2023-03-15T01:05:35.854Z,9.31
2023-03-15T01:06:38.164Z,9.30
2023-03-15T01:07:40.803Z,9.30
2023-03-15T01:08:43.616Z,9.30
2023-03-15T01:09:48.456Z,9.29
2023-03-15T01:10:51.443Z,9.28
2023-03-15T01:11:54.482Z,9.26
2023-03-15T01:12:56.792Z,9.25
2023-03-15T01:14:03.026Z,9.25
2023-03-15T01:15:08.894Z,9.24
2023-03-15T01:16:15.413Z,9.24
2023-03-15T01:17:23.286Z,9.25
2023-03-15T01:18:26.197Z,9.27
2023-03-15T01:19:30.440Z,9.27
2023-03-15T01:20:38.249Z,9.31
2023-03-15T01:21:42.974Z,9.31
2023-03-15T01:22:51.828Z,9.34
2023-03-15T01:23:56.050Z,9.36
2023-03-15T01:25:01.121Z,9.39
2023-03-15T01:26:13.832Z,9.41
2023-03-15T01:27:22.246Z,9.43
2023-03-15T01:28:25.873Z,9.46
2023-03-15T01:29:29.167Z,9.47
2023-03-15T01:30:33.445Z,9.50
2023-03-15T01:31:35.999Z,9.51
2023-03-15T01:32:38.207Z,9.52
2023-03-15T01:33:40.500Z,9.54
2023-03-15T01:34:43.188Z,9.57
2023-03-15T01:35:45.718Z,9.58
2023-03-15T01:36:50.973Z,9.59
2023-03-15T01:37:53.530Z,9.61
2023-03-15T01:38:55.981Z,9.61
2023-03-15T01:40:08.337Z,9.63
2023-03-15T01:41:14.495Z,9.64
2023-03-15T01:42:18.121Z,9.65
2023-03-15T01:43:22.385Z,9.67
2023-03-15T01:44:29.461Z,9.68
2023-03-15T01:46:01.393Z,9.69
2023-03-15T01:47:05.486Z,9.69
2023-03-15T01:48:09.781Z,9.72
2023-03-15T01:49:23.929Z,9.70
2023-03-15T01:50:26.330Z,9.72
2023-03-15T01:51:37.208Z,9.73
2023-03-15T01:52:41.098Z,9.74
2023-03-15T01:53:49.280Z,9.73
2023-03-15T01:54:53.855Z,9.73
2023-03-15T01:55:57.601Z,9.75
2023-03-15T01:57:04.307Z,9.75
2023-03-15T01:58:07.627Z,9.74
2023-03-15T01:59:18.064Z,9.75
2023-03-15T02:00:20.992Z,9.77
2023-03-15T02:01:28.443Z,9.77
2023-03-15T02:02:31.237Z,9.77
2023-03-15T02:03:36.401Z,9.77
2023-03-15T02:05:56.933Z,9.88
2023-03-15T02:07:02.774Z,9.76
2023-03-15T02:08:08.896Z,9.78
2023-03-15T02:09:14.983Z,9.79
2023-03-15T02:11:42.062Z,9.92
2023-03-15T02:12:49.978Z,9.80
2023-03-15T02:13:54.219Z,9.80
2023-03-15T02:14:58.728Z,9.81
2023-03-15T02:16:02.316Z,9.81
2023-03-15T02:17:06.797Z,9.82
2023-03-15T02:18:09.617Z,9.81
2023-03-15T02:20:35.558Z,9.93
2023-03-15T02:23:14.017Z,9.92
2023-03-15T02:24:25.949Z,9.78
2023-03-15T02:25:44.042Z,9.80
2023-03-15T02:26:54.799Z,9.81
2023-03-15T02:27:57.914Z,9.80
2023-03-15T02:29:00.329Z,9.80
2023-03-15T02:30:04.066Z,9.79
2023-03-15T02:31:06.721Z,9.79
2023-03-15T02:32:09.007Z,9.80
2023-03-15T02:33:14.815Z,9.80
2023-03-15T02:34:17.427Z,9.80
2023-03-15T02:36:36.124Z,9.91
2023-03-15T02:37:38.448Z,9.76
2023-03-15T02:38:40.950Z,9.78
2023-03-15T02:39:43.117Z,9.79
2023-03-15T02:40:47.760Z,9.80
2023-03-15T02:41:57.657Z,9.80
2023-03-15T02:44:24.412Z,9.91
2023-03-15T02:45:28.903Z,9.76
2023-03-15T02:46:32.300Z,9.76
2023-03-15T02:47:34.407Z,9.76
2023-03-15T02:48:38.706Z,9.76
2023-03-15T02:49:43.375Z,9.78
2023-03-15T02:50:45.622Z,9.76
2023-03-15T02:51:47.649Z,9.78
2023-03-15T02:52:49.824Z,9.76
2023-03-15T02:53:51.870Z,9.76
2023-03-15T02:54:56.008Z,9.76
2023-03-15T02:55:58.442Z,9.75
2023-03-15T02:57:02.015Z,9.74
2023-03-15T02:58:06.476Z,9.75
2023-03-15T02:59:08.694Z,9.74
2023-03-15T03:00:12.792Z,9.74
2023-03-15T03:01:15.993Z,9.72
2023-03-15T03:02:18.477Z,9.74
2023-03-15T03:03:20.768Z,9.72
2023-03-15T03:04:22.943Z,9.72
2023-03-15T03:05:25.612Z,9.71
2023-03-15T03:06:27.767Z,9.71
2023-03-15T03:07:30.538Z,9.71
2023-03-15T03:08:34.876Z,9.70
2023-03-15T03:09:37.241Z,9.71
2023-03-15T03:10:39.602Z,9.70
2023-03-15T03:11:42.216Z,9.71
2023-03-15T03:12:44.359Z,9.71
2023-03-15T03:13:46.638Z,9.70
2023-03-15T03:14:48.772Z,9.70
2023-03-15T03:15:52.796Z,9.70
2023-03-15T03:16:56.035Z,9.70
2023-03-15T03:17:58.445Z,9.69
2023-03-15T03:19:00.868Z,9.70
2023-03-15T03:20:09.827Z,9.69
2023-03-15T03:21:14.352Z,9.70
2023-03-15T03:22:19.590Z,9.70
2023-03-15T03:23:24.758Z,9.69
2023-03-15T03:24:27.091Z,9.68
2023-03-15T03:25:29.999Z,9.67
2023-03-15T03:26:32.573Z,9.68
2023-03-15T03:27:34.724Z,9.69
2023-03-15T03:28:36.997Z,9.68
2023-03-15T03:29:40.258Z,9.68
2023-03-15T03:30:44.934Z,9.68
2023-03-15T03:31:49.380Z,9.67
2023-03-15T03:32:52.209Z,9.67
2023-03-15T03:33:56.022Z,9.67
2023-03-15T03:34:59.452Z,9.67
2023-03-15T03:36:01.993Z,9.68
2023-03-15T03:37:05.287Z,9.67
2023-03-15T03:38:10.111Z,9.67
2023-03-15T03:39:33.962Z,9.66
2023-03-15T03:40:37.597Z,9.64
2023-03-15T03:41:40.240Z,9.65
2023-03-15T03:42:43.014Z,9.64
2023-03-15T03:43:45.687Z,9.63
2023-03-15T03:44:48.702Z,9.63
2023-03-15T03:45:54.008Z,9.62
2023-03-15T03:46:56.320Z,9.61
2023-03-15T03:47:59.266Z,9.60
2023-03-15T03:49:01.634Z,9.59
2023-03-15T03:50:04.244Z,9.60
2023-03-15T03:51:06.416Z,9.58
2023-03-15T03:52:08.635Z,9.57
2023-03-15T03:53:11.651Z,9.57
2023-03-15T03:54:17.113Z,9.58
2023-03-15T03:55:19.270Z,9.57
2023-03-15T03:56:21.628Z,9.57
2023-03-15T03:57:23.807Z,9.55
2023-03-15T03:58:26.060Z,9.56
2023-03-15T03:59:32.974Z,9.55
2023-03-15T04:00:36.953Z,9.54
2023-03-15T04:01:40.206Z,9.53
2023-03-15T04:02:43.127Z,9.52
2023-03-15T04:03:47.355Z,9.52
2023-03-15T04:04:51.934Z,9.52
2023-03-15T04:05:58.242Z,9.50
2023-03-15T04:07:01.680Z,9.50
2023-03-15T04:08:08.619Z,9.49
2023-03-15T04:09:14.224Z,9.49
2023-03-15T04:10:18.478Z,9.50
2023-03-15T04:11:22.573Z,9.47
2023-03-15T04:12:26.672Z,9.47
2023-03-15T04:13:30.706Z,9.47
2023-03-15T04:14:34.804Z,9.48
2023-03-15T04:15:38.859Z,9.48
2023-03-15T04:16:41.564Z,9.48
2023-03-15T04:17:45.524Z,9.47
2023-03-15T04:18:48.089Z,9.46
2023-03-15T04:19:50.634Z,9.46
2023-03-15T04:20:54.935Z,9.47
2023-03-15T04:21:58.386Z,9.46
2023-03-15T04:24:43.747Z,9.58
2023-03-15T04:27:05.882Z,9.54
2023-03-15T04:28:26.730Z,9.39
2023-03-15T04:29:30.798Z,9.42
2023-03-15T04:30:34.684Z,9.43
2023-03-15T04:31:44.344Z,9.42
2023-03-15T04:33:07.997Z,9.43
2023-03-15T04:34:21.045Z,9.43
2023-03-15T04:35:35.460Z,9.43
2023-03-15T04:36:56.822Z,9.42
2023-03-15T04:38:04.415Z,9.44
2023-03-15T04:39:09.315Z,9.45
2023-03-15T04:40:26.313Z,9.44
2023-03-15T04:41:33.815Z,9.45
2023-03-15T04:42:37.798Z,9.46
2023-03-15T04:43:47.636Z,9.46
2023-03-15T04:44:54.826Z,9.47
2023-03-15T04:46:13.012Z,9.47
2023-03-15T04:47:22.904Z,9.48
2023-03-15T04:48:38.721Z,9.48
2023-03-15T04:49:42.746Z,9.50
2023-03-15T04:50:47.370Z,9.51
2023-03-15T04:51:54.304Z,9.50
2023-03-15T04:53:02.567Z,9.51
2023-03-15T04:54:19.988Z,9.52
2023-03-15T04:55:29.817Z,9.54
2023-03-15T04:56:34.310Z,9.54
2023-03-15T04:57:47.525Z,9.54
2023-03-15T05:00:11.230Z,9.65
2023-03-15T05:01:16.012Z,9.50
2023-03-15T05:02:26.069Z,9.51
2023-03-15T05:03:32.899Z,9.53
2023-03-15T05:04:36.933Z,9.54
2023-03-15T05:06:57.480Z,9.65
2023-03-15T05:08:13.809Z,9.50
2023-03-15T05:10:38.629Z,9.60
2023-03-15T05:11:59.347Z,9.45
2023-03-15T05:13:12.477Z,9.44
2023-03-15T05:14:16.499Z,9.43
2023-03-15T05:15:32.799Z,9.41
2023-03-15T05:16:37.080Z,9.40
2023-03-15T05:17:53.703Z,9.38
2023-03-15T05:19:00.515Z,9.35
2023-03-15T05:20:15.603Z,9.35
2023-03-15T05:21:19.606Z,9.34
2023-03-15T05:22:42.708Z,9.33
2023-03-15T05:23:44.812Z,9.31
2023-03-15T05:24:53.903Z,9.30
2023-03-15T05:26:05.478Z,9.28
2023-03-15T05:27:27.761Z,9.29
2023-03-15T05:28:46.031Z,9.28
2023-03-15T05:29:54.038Z,9.28
2023-03-15T05:31:15.512Z,9.26
2023-03-15T05:32:25.432Z,9.26
2023-03-15T05:34:47.285Z,9.35
2023-03-15T05:36:10.378Z,9.20
2023-03-15T05:37:21.672Z,9.22
2023-03-15T05:38:32.841Z,9.23
2023-03-15T05:39:37.502Z,9.22
2023-03-15T05:40:45.423Z,9.22
2023-03-15T05:43:08.185Z,9.30
2023-03-15T05:44:27.693Z,9.14
2023-03-15T05:45:43.616Z,9.14
2023-03-15T05:47:04.567Z,9.15
2023-03-15T05:48:15.233Z,9.14
2023-03-15T05:49:22.364Z,9.16
2023-03-15T05:50:26.629Z,9.15
2023-03-15T05:51:31.966Z,9.13
2023-03-15T05:52:54.708Z,9.12
2023-03-15T05:54:16.823Z,9.12
2023-03-15T05:55:21.839Z,9.11
2023-03-15T05:57:54.191Z,9.20
2023-03-15T05:58:58.893Z,9.05
2023-03-15T06:01:23.377Z,9.17
2023-03-15T09:44:40.642Z,11.87
2023-03-15T09:46:05.387Z,11.77
2023-03-15T09:47:36.236Z,11.79
2023-03-15T09:49:13.075Z,11.82
2023-03-15T09:50:23.363Z,11.84
2023-03-15T09:51:41.764Z,11.87
2023-03-15T09:53:01.671Z,11.91
2023-03-15T09:55:37.018Z,12.09
2023-03-15T09:56:47.546Z,12.00
2023-03-15T09:58:03.077Z,12.05
2023-03-15T09:59:10.497Z,12.07
2023-03-15T10:01:41.468Z,12.25
2023-03-15T10:02:51.789Z,12.16
2023-03-15T10:05:28.894Z,12.35
2023-03-15T10:06:32.259Z,12.25
2023-03-15T10:07:37.512Z,12.29
2023-03-15T10:08:40.559Z,12.32
2023-03-15T10:11:12.682Z,12.50
2023-03-15T10:12:25.724Z,12.41
2023-03-15T10:13:48.370Z,12.45
2023-03-15T10:15:28.360Z,12.47
2023-03-15T10:16:50.993Z,12.53
2023-03-15T10:18:06.465Z,12.57
2023-03-15T10:19:37.963Z,12.61
2023-03-15T10:22:06.597Z,12.82
2023-03-15T10:23:22.326Z,12.71
2023-03-15T10:25:00.737Z,12.72
2023-03-15T10:26:06.186Z,12.77
2023-03-15T10:27:21.841Z,12.81
2023-03-15T10:28:28.183Z,12.82
2023-03-15T10:29:30.609Z,12.85
2023-03-15T10:30:36.796Z,12.89
2023-03-15T10:31:44.797Z,12.91
2023-03-15T10:34:03.975Z,13.08
2023-03-15T10:35:15.445Z,12.96
2023-03-15T10:36:22.044Z,12.99
2023-03-15T10:37:26.082Z,13.03
2023-03-15T10:38:29.586Z,13.05
2023-03-15T10:39:33.503Z,13.08
2023-03-15T10:40:46.423Z,13.11
2023-03-15T10:41:52.359Z,13.14
2023-03-15T10:42:59.079Z,13.16
2023-03-15T10:45:31.785Z,13.33
2023-03-15T10:46:40.345Z,13.21
2023-03-15T10:47:50.431Z,13.25
2023-03-15T10:49:01.690Z,13.29
2023-03-15T10:50:05.081Z,13.31
2023-03-15T10:51:23.209Z,13.34
2023-03-15T10:52:39.599Z,13.37
2023-03-15T10:53:59.312Z,13.41
2023-03-15T10:55:19.251Z,13.44
2023-03-15T10:56:31.216Z,13.48
2023-03-15T10:57:39.130Z,13.51
2023-03-15T10:58:45.219Z,13.55
2023-03-15T11:00:02.345Z,13.58
2023-03-15T11:01:08.361Z,13.60
2023-03-15T11:03:29.770Z,13.82
2023-03-15T11:04:34.379Z,13.71
2023-03-15T11:05:49.145Z,13.75
2023-03-15T11:08:20.131Z,13.94
2023-03-15T11:09:23.892Z,13.84
2023-03-15T11:10:30.215Z,13.89
2023-03-15T11:13:20.832Z,14.08
2023-03-15T11:16:04.697Z,14.15
2023-03-15T11:17:10.717Z,14.06
2023-03-15T11:18:22.448Z,14.08
2023-03-15T11:19:31.832Z,14.12
2023-03-15T11:20:39.010Z,14.14
2023-03-15T11:21:43.357Z,14.18
2023-03-15T11:22:53.417Z,14.21
2023-03-15T11:23:57.171Z,14.23
2023-03-15T11:24:59.857Z,14.26
2023-03-15T11:26:02.609Z,14.28
2023-03-15T11:27:12.929Z,14.31
2023-03-15T11:28:22.984Z,14.33
2023-03-15T11:29:34.896Z,14.35
2023-03-15T11:30:40.507Z,14.37
2023-03-15T11:31:44.526Z,14.39
2023-03-15T11:32:48.351Z,14.41
2023-03-15T11:34:06.953Z,14.45
2023-03-15T11:36:43.106Z,14.60
2023-03-15T11:38:06.180Z,14.50
2023-03-15T11:39:09.308Z,14.51
2023-03-15T11:40:21.737Z,14.54
2023-03-15T11:43:08.352Z,14.70
2023-03-15T11:44:21.636Z,14.57
2023-03-15T11:45:32.532Z,14.62
2023-03-15T11:48:23.393Z,14.75
2023-03-15T11:49:35.782Z,14.61
2023-03-15T11:50:40.332Z,14.62
2023-03-15T11:51:46.720Z,14.63
2023-03-15T11:52:51.710Z,14.63
2023-03-15T11:55:29.758Z,14.76
2023-03-15T11:56:49.833Z,14.61
2023-03-15T11:59:21.375Z,14.74
2023-03-15T12:00:36.240Z,14.60
2023-03-15T12:03:28.891Z,14.75
2023-03-15T12:06:19.282Z,14.84
2023-03-15T12:07:25.585Z,14.78
2023-03-15T12:08:48.720Z,14.86
2023-03-15T12:10:04.359Z,14.93
2023-03-15T12:11:13.558Z,15.01
2023-03-15T12:12:31.258Z,15.07
2023-03-15T12:13:37.132Z,15.14
2023-03-15T12:14:39.877Z,15.18
2023-03-15T12:15:44.625Z,15.22
2023-03-15T12:16:54.019Z,15.27
2023-03-15T12:18:04.304Z,15.32
2023-03-15T12:19:18.956Z,15.37
2023-03-15T12:20:40.498Z,15.40
2023-03-15T12:21:59.609Z,15.44
2023-03-15T12:24:35.955Z,15.66
2023-03-15T12:25:56.037Z,15.56
2023-03-15T12:27:07.818Z,15.61
2023-03-15T12:28:30.634Z,15.65
2023-03-15T12:29:35.118Z,15.65
2023-03-15T12:30:46.426Z,15.65
2023-03-15T12:31:59.279Z,15.65
2023-03-15T12:33:04.569Z,15.63
2023-03-15T12:34:14.407Z,15.61
2023-03-15T12:35:22.795Z,15.59
2023-03-15T12:36:37.793Z,15.57
2023-03-15T12:37:46.825Z,15.55
2023-03-15T12:40:21.141Z,15.65
2023-03-15T12:43:11.681Z,15.61
2023-03-15T12:44:39.709Z,15.45
2023-03-15T12:45:44.295Z,15.46
2023-03-15T12:48:07.695Z,15.57
2023-03-15T12:49:26.795Z,15.40
2023-03-15T12:50:52.295Z,15.40
2023-03-15T12:51:59.777Z,15.39
2023-03-15T12:53:30.969Z,15.40
2023-03-15T12:54:58.853Z,15.38
2023-03-15T12:56:30.728Z,15.38
2023-03-15T12:57:48.566Z,15.37
2023-03-15T12:58:55.986Z,15.38
2023-03-15T13:00:00.683Z,15.37
2023-03-15T13:01:05.854Z,15.38
2023-03-15T13:03:52.837Z,15.50
2023-03-15T13:07:05.643Z,15.51
2023-03-15T13:08:20.243Z,15.37
2023-03-15T13:10:00.204Z,15.40
2023-03-15T13:11:15.333Z,15.44
2023-03-15T13:12:24.547Z,15.57
2023-03-15T13:15:23.108Z,15.89
2023-03-15T13:18:12.269Z,15.90
2023-03-15T13:19:27.789Z,15.77
2023-03-15T13:21:06.345Z,15.78
2023-03-15T13:22:30.333Z,15.78
2023-03-15T13:23:33.822Z,15.78
2023-03-15T13:24:52.707Z,15.77
2023-03-15T13:26:26.345Z,15.74
2023-03-15T13:27:48.810Z,15.73
2023-03-15T13:29:08.145Z,15.73
2023-03-15T13:31:40.984Z,15.83
2023-03-15T13:32:43.999Z,15.68
2023-03-15T13:33:48.485Z,15.68
2023-03-15T13:34:54.078Z,15.69
2023-03-15T13:36:01.617Z,15.68
2023-03-15T13:37:08.179Z,15.68
2023-03-15T13:38:44.759Z,15.67
2023-03-15T13:39:59.402Z,15.66
2023-03-15T13:41:04.464Z,15.67
2023-03-15T13:42:18.767Z,15.67
2023-03-15T13:43:28.922Z,15.66
2023-03-15T13:44:34.028Z,15.65
2023-03-15T13:45:41.132Z,15.65
2023-03-15T13:46:50.123Z,15.65
2023-03-15T13:47:53.644Z,15.64
2023-03-15T13:48:56.164Z,15.64
2023-03-15T13:49:58.957Z,15.64
2023-03-15T13:51:08.472Z,15.65
2023-03-15T13:52:12.462Z,15.64
2023-03-15T13:53:22.902Z,15.66
2023-03-15T13:54:28.911Z,15.65
2023-03-15T13:55:37.055Z,15.65
2023-03-15T13:58:08.626Z,15.77
2023-03-15T13:59:12.306Z,15.61
2023-03-15T14:00:19.394Z,15.63
2023-03-15T14:01:23.755Z,15.63
2023-03-15T14:02:44.943Z,15.64
2023-03-15T14:03:50.824Z,15.67
2023-03-15T14:04:59.661Z,15.72
2023-03-15T14:06:03.453Z,15.77
2023-03-15T14:07:31.389Z,15.82
2023-03-15T14:08:37.629Z,15.86
2023-03-15T14:09:40.142Z,15.90
2023-03-15T14:10:43.659Z,15.91
2023-03-15T14:11:46.367Z,15.94
2023-03-15T14:12:54.940Z,15.95
2023-03-15T14:14:00.435Z,15.97
2023-03-15T14:15:27.296Z,16.00
2023-03-15T14:17:03.236Z,16.01
2023-03-15T14:17:57.436Z,16.06
2023-03-15T14:20:43.191Z,16.34
2023-03-15T14:21:54.680Z,16.27
2023-03-15T14:23:04.730Z,16.37
2023-03-15T14:24:11.788Z,16.50
2023-03-15T14:25:21.647Z,16.61
2023-03-15T14:26:30.528Z,16.75
2023-03-15T14:27:33.259Z,16.86
2023-03-15T14:28:37.118Z,16.98
2023-03-15T14:31:13.521Z,17.37
2023-03-15T14:32:28.240Z,17.34
2023-03-15T14:33:34.330Z,17.48
2023-03-15T14:34:46.339Z,17.63
2023-03-15T14:35:52.589Z,17.78
2023-03-15T14:36:59.302Z,17.91
2023-03-15T14:38:26.932Z,18.02
2023-03-15T14:39:33.489Z,18.13
2023-03-15T14:40:37.724Z,18.28
2023-03-15T14:41:42.183Z,18.38
2023-03-15T14:42:50.411Z,18.47
2023-03-15T14:43:55.492Z,18.56
2023-03-15T14:44:58.302Z,18.64
2023-03-15T14:46:03.168Z,18.72
2023-03-15T14:47:16.542Z,18.79
2023-03-15T14:48:25.070Z,18.85
2023-03-15T14:49:28.505Z,18.93
2023-03-15T14:50:38.970Z,19.01
2023-03-15T14:51:42.560Z,19.07
2023-03-15T14:52:52.379Z,19.14
2023-03-15T14:53:58.104Z,19.20
2023-03-15T14:55:00.801Z,19.25
2023-03-15T14:56:03.462Z,19.30
2023-03-15T14:57:06.377Z,19.34
2023-03-15T14:58:16.790Z,19.38
2023-03-15T15:00:39.251Z,19.60
2023-03-15T15:01:46.997Z,19.42
2023-03-15T15:02:54.949Z,19.40
2023-03-15T15:04:02.886Z,19.38
2023-03-15T15:05:30.934Z,19.34
2023-03-15T15:06:35.470Z,19.33
2023-03-15T15:07:44.188Z,19.27
2023-03-15T15:08:48.999Z,19.21
2023-03-15T15:11:12.265Z,19.20
2023-03-15T15:12:22.442Z,18.98
2023-03-15T15:13:27.928Z,18.94
2023-03-15T15:14:41.511Z,18.88
2023-03-15T15:15:55.011Z,18.84
2023-03-15T15:16:57.949Z,18.78
2023-03-15T15:17:56.200Z,18.73
2023-03-15T15:18:58.464Z,18.67
2023-03-15T15:20:01.341Z,18.62
2023-03-15T15:21:20.702Z,18.55
2023-03-15T15:22:23.154Z,18.47
2023-03-15T15:23:32.363Z,18.36
2023-03-15T15:24:36.249Z,18.28
2023-03-15T15:25:38.709Z,18.20
2023-03-15T15:26:44.798Z,18.13
2023-03-15T15:27:50.975Z,18.07
2023-03-15T15:29:00.402Z,18.00
2023-03-15T15:30:05.317Z,17.92
2023-03-15T15:31:13.030Z,17.84
2023-03-15T15:33:36.782Z,17.78
2023-03-15T15:34:42.181Z,17.54
2023-03-15T15:35:45.881Z,17.48
2023-03-15T15:36:49.084Z,17.42
2023-03-15T15:37:53.495Z,17.37
2023-03-15T15:38:59.871Z,17.30
2023-03-15T15:40:12.528Z,17.24
2023-03-15T15:42:35.809Z,17.18
2023-03-15T15:43:42.868Z,16.94
2023-03-15T15:44:47.681Z,16.88
2023-03-15T15:45:52.720Z,16.83
2023-03-15T15:46:58.073Z,16.77
2023-03-15T15:48:01.250Z,16.73
2023-03-15T15:49:10.114Z,16.64
2023-03-15T15:50:20.219Z,16.59
2023-03-15T15:51:31.342Z,16.50
2023-03-15T15:53:52.025Z,16.46
2023-03-15T15:56:11.983Z,16.27
2023-03-15T15:57:15.541Z,16.06
2023-03-15T15:58:20.481Z,16.03
2023-03-15T15:59:25.009Z,15.98
2023-03-15T16:00:28.482Z,15.92
2023-03-15T16:01:32.264Z,15.88
2023-03-15T16:02:38.680Z,15.84
2023-03-15T16:03:44.039Z,15.79
2023-03-15T16:04:48.300Z,15.72
2023-03-15T16:05:53.495Z,15.65
2023-03-15T16:09:37.418Z,15.51
2023-03-15T16:10:43.176Z,15.32
2023-03-15T16:11:50.718Z,15.28
2023-03-15T16:12:57.335Z,15.25
2023-03-15T16:15:25.713Z,15.29
2023-03-15T16:16:31.864Z,15.08
2023-03-15T16:17:35.324Z,15.04
2023-03-15T16:18:44.658Z,15.01
2023-03-15T16:19:54.443Z,14.95
2023-03-15T16:21:02.157Z,14.91
2023-03-15T16:22:04.717Z,14.87
2023-03-15T16:23:17.523Z,14.84
2023-03-15T16:24:28.705Z,14.80
2023-03-15T16:25:34.822Z,14.76
2023-03-15T16:26:43.280Z,14.73
2023-03-15T16:27:52.484Z,14.69
2023-03-15T16:28:56.035Z,14.66
2023-03-15T16:29:59.570Z,14.61
2023-03-15T16:31:02.675Z,14.56
2023-03-15T16:32:17.916Z,14.51
2023-03-15T16:33:18.027Z,14.47
2023-03-15T16:34:20.477Z,14.42
2023-03-15T16:35:34.776Z,14.37
2023-03-15T16:36:42.530Z,14.34
2023-03-15T16:37:45.667Z,14.30
2023-03-15T16:38:55.329Z,14.26
2023-03-15T16:40:00.291Z,14.22
2023-03-15T16:41:08.387Z,14.19
2023-03-15T16:42:15.816Z,14.16
2023-03-15T16:43:20.590Z,14.13
2023-03-15T16:44:26.112Z,14.09
2023-03-15T16:45:29.936Z,14.06
2023-03-15T16:48:03.430Z,14.12
2023-03-15T16:49:17.208Z,13.93
2023-03-15T16:50:24.624Z,13.92
2023-03-15T16:51:27.886Z,13.92
2023-03-15T16:52:35.222Z,13.89
2023-03-15T16:53:40.400Z,13.85
2023-03-15T16:54:58.673Z,13.84
2023-03-15T16:57:24.552Z,13.92
2023-03-15T16:58:32.447Z,13.74
2023-03-15T16:59:34.746Z,13.73
2023-03-15T17:00:37.248Z,13.71
2023-03-15T17:01:40.355Z,13.70
2023-03-15T17:04:02.921Z,13.75
2023-03-15T17:05:07.759Z,13.57
2023-03-15T17:06:19.740Z,13.57
2023-03-15T17:07:34.405Z,13.57
2023-03-15T17:08:40.887Z,13.55
2023-03-15T17:09:46.763Z,13.55
2023-03-15T17:10:50.851Z,13.54
2023-03-15T17:11:56.132Z,13.53
2023-03-15T17:13:02.351Z,13.51
2023-03-15T17:15:45.658Z,13.59
2023-03-15T17:16:50.037Z,13.43
2023-03-15T17:18:00.454Z,13.41
2023-03-15T17:19:14.622Z,13.39
2023-03-15T17:20:19.226Z,13.38
2023-03-15T17:21:24.309Z,13.36
2023-03-15T17:22:30.430Z,13.37
2023-03-15T17:23:33.261Z,13.33
2023-03-15T17:24:38.634Z,13.32
2023-03-15T17:25:41.800Z,13.31
2023-03-15T17:26:50.759Z,13.28
2023-03-15T17:27:59.570Z,13.27
2023-03-15T17:29:04.169Z,13.26
2023-03-15T17:30:34.121Z,13.24
2023-03-15T17:31:39.481Z,13.22
2023-03-15T17:32:42.782Z,13.21
2023-03-15T17:33:46.296Z,13.17
2023-03-15T17:34:49.282Z,13.15
2023-03-15T17:35:53.221Z,13.14
2023-03-15T17:36:59.706Z,13.11
2023-03-15T17:38:06.247Z,13.12
2023-03-15T17:39:24.129Z,13.09
2023-03-15T17:40:32.041Z,13.08
2023-03-15T17:41:38.416Z,13.08
2023-03-15T17:42:43.374Z,13.05
2023-03-15T17:43:46.241Z,13.04
2023-03-15T17:44:51.644Z,13.03
2023-03-15T17:46:00.283Z,13.02
2023-03-15T17:47:04.980Z,13.01
2023-03-15T17:48:08.643Z,12.97
2023-03-15T17:49:15.947Z,12.96
2023-03-15T17:51:34.681Z,13.06
2023-03-15T17:52:39.522Z,12.89
2023-03-15T17:53:44.849Z,12.88
2023-03-15T17:54:49.416Z,12.89
2023-03-15T17:55:55.004Z,12.88
2023-03-15T17:57:02.228Z,12.86
2023-03-15T17:58:14.999Z,12.83
2023-03-15T18:00:33.762Z,12.93
2023-03-15T18:01:40.255Z,12.75
2023-03-15T18:02:54.971Z,12.77
2023-03-15T18:03:52.957Z,12.76
2023-03-15T18:17:15.126Z,13.04
2023-03-15T18:29:34.448Z,12.68
2023-03-15T18:43:43.085Z,12.81
2023-03-15T18:52:43.069Z,12.61
2023-03-15T19:05:55.709Z,12.60
2023-03-15T19:06:59.591Z,12.43
2023-03-15T19:08:04.845Z,12.42
2023-03-15T19:09:14.990Z,12.40
2023-03-15T19:10:22.621Z,12.39
2023-03-15T19:11:26.805Z,12.37
2023-03-15T19:12:34.919Z,12.36
2023-03-15T19:15:15.768Z,12.43
2023-03-15T19:16:22.081Z,12.26
2023-03-15T19:17:26.443Z,12.26
2023-03-15T19:18:29.149Z,12.26
2023-03-15T19:19:39.717Z,12.24
2023-03-15T19:20:46.654Z,12.22
2023-03-15T19:21:51.741Z,12.22
2023-03-15T19:23:01.032Z,12.21
2023-03-15T19:24:04.266Z,12.19
2023-03-15T19:25:12.694Z,12.17
2023-03-15T19:26:21.698Z,12.17
2023-03-15T19:27:32.851Z,12.15
2023-03-15T19:28:36.943Z,12.14
2023-03-15T19:29:41.309Z,12.14
2023-03-15T19:30:44.006Z,12.13
2023-03-15T19:31:46.326Z,12.13
2023-03-15T19:32:50.759Z,12.13
2023-03-15T19:33:54.420Z,12.11
2023-03-15T19:35:00.887Z,12.11
2023-03-15T19:36:10.155Z,12.11
2023-03-15T19:37:13.012Z,12.09
2023-03-15T19:38:16.144Z,12.09
2023-03-15T19:39:25.571Z,12.05
2023-03-15T19:40:29.488Z,12.03
2023-03-15T19:41:31.617Z,12.01
2023-03-15T19:43:54.086Z,12.10
2023-03-15T19:45:01.842Z,11.95
2023-03-15T19:46:08.293Z,11.93
2023-03-15T19:47:16.122Z,11.93
2023-03-15T19:48:22.762Z,11.93
2023-03-15T19:49:32.371Z,11.92
2023-03-15T19:50:36.270Z,11.88
2023-03-15T19:51:39.873Z,11.88
2023-03-15T19:52:45.551Z,11.89
2023-03-15T19:53:49.206Z,11.87
2023-03-15T19:54:51.516Z,11.87
2023-03-15T19:55:59.850Z,11.87
2023-03-15T19:57:01.995Z,11.85
2023-03-15T19:58:05.709Z,11.83
2023-03-15T19:59:09.903Z,11.82
2023-03-15T20:00:22.413Z,11.81
2023-03-15T20:01:28.164Z,11.79
2023-03-15T20:02:33.242Z,11.77
2023-03-15T20:03:36.686Z,11.77
2023-03-15T20:04:46.117Z,11.75
2023-03-15T20:05:54.246Z,11.73
2023-03-15T20:07:00.592Z,11.72
2023-03-15T20:08:08.378Z,11.71
2023-03-15T20:09:11.124Z,11.70
2023-03-15T20:10:14.738Z,11.70
2023-03-15T20:11:20.052Z,11.69
2023-03-15T20:12:23.443Z,11.69
2023-03-15T20:13:32.912Z,11.68
2023-03-15T20:14:38.413Z,11.66
2023-03-15T20:15:41.110Z,11.66
2023-03-15T20:16:50.118Z,11.65
2023-03-15T20:17:53.206Z,11.63
2023-03-15T20:18:58.997Z,11.62
2023-03-15T20:20:01.105Z,11.59
2023-03-15T20:21:06.826Z,11.57
2023-03-15T20:22:10.085Z,11.57
2023-03-15T20:23:16.464Z,11.55
2023-03-15T20:24:19.241Z,11.56
2023-03-15T20:25:22.035Z,11.54
2023-03-15T20:26:25.723Z,11.53
2023-03-15T20:27:28.358Z,11.53
2023-03-15T20:28:30.961Z,11.52
2023-03-15T20:29:35.385Z,11.51
2023-03-15T20:30:44.201Z,11.50
2023-03-15T20:31:46.553Z,11.47
2023-03-15T20:32:50.133Z,11.46
2023-03-15T20:33:57.694Z,11.47
2023-03-15T20:35:01.701Z,11.47
2023-03-15T20:36:11.161Z,11.48
2023-03-15T20:37:16.816Z,11.46
2023-03-15T20:38:19.132Z,11.46
2023-03-15T20:39:21.414Z,11.43
2023-03-15T20:40:25.581Z,11.44
2023-03-15T20:41:28.021Z,11.43
2023-03-15T20:42:31.069Z,11.43
2023-03-15T20:43:33.587Z,11.43
2023-03-15T20:44:36.252Z,11.44
2023-03-15T20:45:38.715Z,11.45
2023-03-15T20:46:42.790Z,11.45
2023-03-15T20:47:45.339Z,11.46
2023-03-15T20:48:52.695Z,11.48